createdAt,value
2018-10-09T00:00:39.235Z,11.21
2018-10-09T00:03:06.590Z,11.25
2018-10-09T00:05:33.993Z,11.26
2018-10-09T00:08:01.395Z,11.28
2018-10-09T00:10:29.101Z,11.33
2018-10-09T00:12:56.509Z,11.39
2018-10-09T00:15:24.081Z,11.40
2018-10-09T00:17:51.645Z,11.35
2018-10-09T00:20:23.598Z,11.33
2018-10-09T00:22:52.382Z,11.33
2018-10-09T00:25:19.846Z,11.33
2018-10-09T00:27:47.276Z,11.35
2018-10-09T00:30:14.742Z,11.37
2018-10-09T00:32:45.636Z,11.45
2018-10-09T00:35:13.577Z,11.52
2018-10-09T00:37:40.912Z,11.54
2018-10-09T00:40:08.487Z,11.55
2018-10-09T00:42:36.063Z,11.58
2018-10-09T00:45:03.717Z,11.59
2018-10-09T00:47:31.206Z,11.56
2018-10-09T00:49:58.652Z,11.53
2018-10-09T00:52:26.211Z,11.49
2018-10-09T00:54:53.687Z,11.46
2018-10-09T00:57:21.122Z,11.41
2018-10-09T00:59:48.528Z,11.39
2018-10-09T01:02:16.283Z,11.37
2018-10-09T01:04:43.704Z,11.37
2018-10-09T01:07:11.158Z,11.35
2018-10-09T01:09:38.737Z,11.36
2018-10-09T01:12:06.265Z,11.35
2018-10-09T01:14:33.695Z,11.32
2018-10-09T01:17:01.208Z,11.28
2018-10-09T01:19:28.973Z,11.28
2018-10-09T01:21:56.413Z,11.44
2018-10-09T01:24:23.946Z,11.39
2018-10-09T01:26:51.392Z,11.34
2018-10-09T01:29:18.800Z,11.33
2018-10-09T01:31:46.259Z,11.31
2018-10-09T01:34:13.668Z,11.28
2018-10-09T01:36:41.132Z,11.22
2018-10-09T01:39:09.438Z,11.14
2018-10-09T01:41:36.981Z,11.09
2018-10-09T01:44:04.441Z,11.07
2018-10-09T01:46:31.885Z,11.03
2018-10-09T01:48:59.287Z,10.98
2018-10-09T01:51:26.811Z,10.92
2018-10-09T01:53:54.491Z,10.89
2018-10-09T01:56:21.968Z,10.89
2018-10-09T01:58:49.369Z,10.83
2018-10-09T02:01:16.833Z,10.82
2018-10-09T02:03:44.315Z,10.83
2018-10-09T02:06:14.778Z,10.86
2018-10-09T02:08:42.217Z,10.86
2018-10-09T02:11:09.620Z,11.02
2018-10-09T02:13:37.008Z,11.02
2018-10-09T02:16:04.489Z,11.03
2018-10-09T02:18:32.123Z,11.04
2018-10-09T02:20:59.541Z,10.96
2018-10-09T02:23:27.133Z,10.91
2018-10-09T02:25:54.541Z,10.88
2018-10-09T02:28:21.929Z,10.88
2018-10-09T02:30:49.369Z,10.83
2018-10-09T02:33:16.761Z,10.85
2018-10-09T02:35:44.143Z,10.79
2018-10-09T02:38:11.621Z,10.70
2018-10-09T02:40:39.109Z,10.62
2018-10-09T02:43:06.493Z,10.58
2018-10-09T02:45:33.975Z,10.56
2018-10-09T02:48:01.325Z,10.49
2018-10-09T02:50:28.733Z,10.46
2018-10-09T02:52:56.189Z,10.44
2018-10-09T02:55:23.607Z,10.38
2018-10-09T02:57:51.025Z,10.27
2018-10-09T03:00:18.460Z,10.21
2018-10-09T03:02:45.949Z,10.14
2018-10-09T03:05:13.345Z,10.08
2018-10-09T03:07:40.829Z,10.00
2018-10-09T03:10:08.269Z,9.97
2018-10-09T03:12:35.681Z,9.94
2018-10-09T03:15:03.649Z,9.91
2018-10-09T03:17:31.059Z,9.90
2018-10-09T03:19:58.501Z,9.93
2018-10-09T03:22:25.933Z,9.90
2018-10-09T03:24:53.325Z,9.89
2018-10-09T03:27:20.769Z,9.82
2018-10-09T03:29:48.273Z,9.73
2018-10-09T03:32:15.697Z,9.71
2018-10-09T03:34:43.107Z,9.69
2018-10-09T03:37:10.587Z,9.68
2018-10-09T03:39:38.096Z,9.62
2018-10-09T03:42:05.793Z,9.55
2018-10-09T03:44:33.239Z,9.50
2018-10-09T03:47:00.621Z,9.48
2018-10-09T03:49:28.111Z,9.44
2018-10-09T03:51:55.553Z,9.40
2018-10-09T03:54:23.055Z,9.38
2018-10-09T03:56:50.613Z,9.35
2018-10-09T03:59:18.030Z,9.38
2018-10-09T04:01:45.436Z,9.42
2018-10-09T04:04:12.843Z,9.47
2018-10-09T04:06:40.263Z,9.51
2018-10-09T04:09:10.251Z,9.52
2018-10-09T04:11:37.669Z,9.49
2018-10-09T04:14:05.189Z,9.51
2018-10-09T04:16:32.573Z,9.51
2018-10-09T04:18:59.975Z,9.51
2018-10-09T04:21:27.471Z,9.48
2018-10-09T04:23:54.965Z,9.45
2018-10-09T04:26:22.492Z,9.43
2018-10-09T04:28:50.000Z,9.43
2018-10-09T04:31:17.445Z,9.40
2018-10-09T04:33:44.862Z,9.41
2018-10-09T04:36:12.325Z,9.36
2018-10-09T04:38:39.734Z,9.41
2018-10-09T04:41:07.237Z,9.39
2018-10-09T04:43:34.717Z,9.41
2018-10-09T04:46:02.190Z,9.36
2018-10-09T04:48:29.648Z,9.28
2018-10-09T04:50:57.104Z,9.22
2018-10-09T04:53:24.583Z,9.20
2018-10-09T04:55:52.000Z,9.18
2018-10-09T04:58:19.436Z,9.19
2018-10-09T05:00:47.011Z,9.18
2018-10-09T05:03:14.467Z,9.19
2018-10-09T05:05:41.922Z,9.20
2018-10-09T05:08:09.408Z,9.25
2018-10-09T05:10:36.819Z,9.33
2018-10-09T05:13:04.200Z,9.41
2018-10-09T05:15:31.694Z,9.50
2018-10-09T05:17:59.081Z,9.58
2018-10-09T05:20:26.552Z,9.62
2018-10-09T05:22:53.941Z,9.67
2018-10-09T05:25:21.397Z,9.65
2018-10-09T05:27:48.952Z,9.66
2018-10-09T05:30:16.344Z,9.67
2018-10-09T05:32:43.740Z,9.66
2018-10-09T05:35:11.137Z,9.66
2018-10-09T05:37:38.590Z,9.64
2018-10-09T05:40:06.077Z,9.65
2018-10-09T05:42:33.546Z,9.66
2018-10-09T05:45:00.986Z,9.68
2018-10-09T05:47:28.434Z,9.72
2018-10-09T05:49:55.901Z,9.79
2018-10-09T05:52:23.438Z,9.85
2018-10-09T05:54:50.847Z,9.99
2018-10-09T05:57:18.285Z,10.14
2018-10-09T05:59:45.759Z,10.34
2018-10-09T06:02:13.329Z,10.49
2018-10-09T06:04:40.776Z,10.70
2018-10-09T06:07:08.256Z,10.97
2018-10-09T06:09:35.832Z,11.43
2018-10-09T06:12:03.571Z,12.30
2018-10-09T06:14:30.957Z,13.12
2018-10-09T06:16:58.442Z,13.53
2018-10-09T06:19:25.949Z,13.97
2018-10-09T06:21:53.453Z,14.46
2018-10-09T06:24:20.869Z,14.70
2018-10-09T06:26:48.913Z,14.67
2018-10-09T06:29:18.513Z,14.66
2018-10-09T06:31:47.438Z,14.63
2018-10-09T06:34:15.843Z,14.74
2018-10-09T06:36:43.373Z,15.02
2018-10-09T06:39:11.600Z,15.28
2018-10-09T06:41:40.008Z,15.50
2018-10-09T06:44:07.470Z,15.74
2018-10-09T06:46:35.050Z,16.07
2018-10-09T06:49:02.601Z,16.39
2018-10-09T06:51:30.042Z,16.75
2018-10-09T06:53:58.663Z,17.09
2018-10-09T06:56:26.600Z,17.71
2018-10-09T06:58:54.338Z,18.81
2018-10-09T07:01:21.752Z,20.10
2018-10-09T07:03:49.167Z,20.65
2018-10-09T07:06:16.662Z,21.09
2018-10-09T07:08:44.171Z,21.61
2018-10-09T07:11:11.734Z,22.08
2018-10-09T07:13:39.055Z,22.54
2018-10-09T07:16:06.536Z,23.16
2018-10-09T07:18:33.987Z,23.76
2018-10-09T07:21:01.457Z,24.12
2018-10-09T07:23:28.902Z,24.63
2018-10-09T07:25:56.378Z,24.98
2018-10-09T07:28:23.798Z,25.59
2018-10-09T07:30:51.266Z,26.24
2018-10-09T07:33:18.791Z,26.69
2018-10-09T07:35:46.212Z,26.96
2018-10-09T07:38:13.762Z,26.84
2018-10-09T07:40:41.236Z,26.41
2018-10-09T07:43:08.782Z,26.09
2018-10-09T07:45:36.247Z,25.84
2018-10-09T07:48:03.678Z,25.82
2018-10-09T07:50:31.106Z,25.62
2018-10-09T07:52:58.798Z,25.73
2018-10-09T07:55:26.407Z,25.81
2018-10-09T07:57:55.019Z,25.67
2018-10-09T08:00:23.113Z,25.60
2018-10-09T08:02:50.552Z,25.82
2018-10-09T08:05:18.103Z,25.88
2018-10-09T08:07:45.599Z,25.87
2018-10-09T08:10:13.079Z,25.51
2018-10-09T08:12:40.617Z,25.31
2018-10-09T08:15:08.190Z,24.87
2018-10-09T08:17:35.715Z,24.98
2018-10-09T08:20:03.435Z,25.78
2018-10-09T08:22:31.010Z,26.26
2018-10-09T08:24:58.661Z,26.89
2018-10-09T08:27:26.328Z,27.53
2018-10-09T08:29:53.765Z,28.22
2018-10-09T08:32:21.321Z,26.54
2018-10-09T08:34:48.663Z,25.99
2018-10-09T08:37:16.113Z,26.06
2018-10-09T08:39:44.415Z,26.16
2018-10-09T08:42:11.895Z,26.37
2018-10-09T08:44:39.354Z,26.54
2018-10-09T08:47:06.920Z,26.95
2018-10-09T08:49:34.462Z,26.43
2018-10-09T08:52:01.982Z,25.89
2018-10-09T08:54:29.347Z,25.43
2018-10-09T08:56:56.784Z,24.85
2018-10-09T08:59:24.245Z,24.07
2018-10-09T09:01:51.789Z,22.70
2018-10-09T09:04:19.265Z,21.94
2018-10-09T09:06:46.699Z,20.75
2018-10-09T09:09:14.146Z,20.18
2018-10-09T09:11:41.627Z,20.11
2018-10-09T09:14:09.095Z,20.22
2018-10-09T09:16:36.525Z,20.37
2018-10-09T09:19:04.065Z,20.47
2018-10-09T09:21:32.103Z,20.48
2018-10-09T09:23:59.891Z,20.68
2018-10-09T09:26:27.466Z,20.98
2018-10-09T09:28:55.446Z,21.31
2018-10-09T09:31:22.926Z,21.55
2018-10-09T09:33:50.419Z,21.68
2018-10-09T09:36:17.839Z,21.86
2018-10-09T09:38:45.286Z,21.93
2018-10-09T09:41:12.812Z,21.98
2018-10-09T09:43:40.263Z,22.04
2018-10-09T09:46:07.935Z,22.07
2018-10-09T09:48:35.373Z,22.12
2018-10-09T09:51:02.819Z,22.23
2018-10-09T09:53:30.288Z,22.16
2018-10-09T09:55:57.693Z,22.19
2018-10-09T09:58:25.259Z,22.02
2018-10-09T10:00:56.091Z,22.18
2018-10-09T10:03:23.496Z,22.23
2018-10-09T10:05:50.930Z,22.51
2018-10-09T10:08:18.537Z,22.58
2018-10-09T10:10:45.953Z,22.65
2018-10-09T10:13:13.441Z,22.68
2018-10-09T10:15:40.949Z,22.79
2018-10-09T10:18:08.294Z,22.88
2018-10-09T10:20:35.692Z,22.89
2018-10-09T10:23:03.144Z,22.96
2018-10-09T10:25:30.690Z,23.05
2018-10-09T10:27:58.093Z,23.02
2018-10-09T10:30:26.040Z,22.97
2018-10-09T10:32:53.461Z,22.94
2018-10-09T10:35:20.939Z,22.93
2018-10-09T10:37:48.382Z,22.99
2018-10-09T10:40:15.818Z,23.01
2018-10-09T10:42:43.709Z,22.97
2018-10-09T10:45:11.280Z,22.99
2018-10-09T10:47:38.706Z,22.95
2018-10-09T10:50:06.140Z,22.75
2018-10-09T10:55:07.811Z,22.72
2018-10-09T10:57:35.221Z,22.76
2018-10-09T11:00:03.015Z,22.90
2018-10-09T11:02:30.480Z,22.89
2018-10-09T11:04:57.921Z,22.85
2018-10-09T11:07:25.343Z,22.82
2018-10-09T11:09:52.777Z,22.86
2018-10-09T11:12:20.325Z,22.95
2018-10-09T11:14:47.812Z,22.99
2018-10-09T11:17:15.379Z,23.09
2018-10-09T11:19:42.882Z,23.11
2018-10-09T11:22:10.352Z,23.12
2018-10-09T11:24:37.749Z,22.97
2018-10-09T11:27:05.303Z,22.88
2018-10-09T11:29:32.719Z,22.82
2018-10-09T11:32:00.228Z,22.60
2018-10-09T11:34:27.671Z,22.49
2018-10-09T11:36:55.114Z,22.35
2018-10-09T11:39:22.522Z,22.17
2018-10-09T11:41:50.291Z,21.79
2018-10-09T11:44:17.664Z,21.36
2018-10-09T11:46:45.134Z,21.19
2018-10-09T11:49:12.634Z,21.12
2018-10-09T11:51:40.185Z,20.99
2018-10-09T11:54:07.666Z,20.93
2018-10-09T11:56:35.169Z,20.93
2018-10-09T11:59:02.721Z,20.92
2018-10-09T12:01:30.138Z,20.80
2018-10-09T12:03:57.772Z,20.73
2018-10-09T12:06:25.218Z,20.70
2018-10-09T12:08:52.727Z,20.50
2018-10-09T12:11:20.632Z,20.35
2018-10-09T12:13:48.254Z,20.24
2018-10-09T12:16:15.917Z,20.30
2018-10-09T12:18:43.448Z,20.29
2018-10-09T12:21:10.908Z,20.37
2018-10-09T12:23:38.374Z,20.61
2018-10-09T12:26:05.984Z,20.59
2018-10-09T12:28:33.382Z,20.51
2018-10-09T12:31:01.265Z,20.50
2018-10-09T12:33:29.034Z,20.57
2018-10-09T12:35:56.482Z,20.68
2018-10-09T12:38:23.968Z,20.71
2018-10-09T12:40:51.418Z,20.63
2018-10-09T12:43:18.944Z,20.70
2018-10-09T12:45:46.477Z,20.73
2018-10-09T12:48:14.202Z,20.68
2018-10-09T12:50:41.600Z,20.67
2018-10-09T12:53:09.028Z,20.75
2018-10-09T12:55:36.488Z,20.77
2018-10-09T12:58:04.031Z,20.81
2018-10-09T13:00:31.651Z,20.84
2018-10-09T13:02:59.331Z,20.79
2018-10-09T13:05:26.794Z,20.82
2018-10-09T13:07:54.306Z,20.85
2018-10-09T13:10:21.827Z,20.91
2018-10-09T13:12:49.492Z,20.89
2018-10-09T13:15:16.931Z,20.86
2018-10-09T13:17:44.558Z,20.85
2018-10-09T13:20:11.790Z,20.93
2018-10-09T13:22:39.264Z,20.87
2018-10-09T13:25:07.280Z,20.89
2018-10-09T13:27:34.718Z,20.95
2018-10-09T13:30:02.226Z,20.99
2018-10-09T13:32:29.700Z,21.05
2018-10-09T13:34:57.210Z,21.10
2018-10-09T13:37:24.758Z,21.11
2018-10-09T13:39:52.240Z,21.03
2018-10-09T13:42:19.738Z,20.97
2018-10-09T13:44:47.248Z,21.04
2018-10-09T13:47:14.776Z,21.11
2018-10-09T13:49:42.382Z,21.20
2018-10-09T13:52:09.926Z,21.22
2018-10-09T13:54:37.383Z,21.25
2018-10-09T13:57:04.926Z,21.30
2018-10-09T13:59:32.378Z,21.36
2018-10-09T14:01:59.866Z,21.42
2018-10-09T14:04:27.338Z,21.45
2018-10-09T14:06:54.884Z,21.52
2018-10-09T14:09:22.334Z,21.58
2018-10-09T14:11:49.771Z,21.53
2018-10-09T14:14:17.302Z,21.54
2018-10-09T14:16:45.432Z,21.55
2018-10-09T14:19:13.009Z,21.45
2018-10-09T14:21:40.634Z,21.48
2018-10-09T14:24:08.096Z,21.47
2018-10-09T14:26:35.974Z,21.42
2018-10-09T14:29:03.584Z,21.38
2018-10-09T14:31:31.205Z,21.31
2018-10-09T14:33:58.608Z,21.31
2018-10-09T14:36:26.210Z,21.30
2018-10-09T14:38:53.810Z,21.27
2018-10-09T14:41:21.726Z,21.24
2018-10-09T14:43:49.943Z,21.18
2018-10-09T14:46:17.915Z,21.20
2018-10-09T14:48:45.405Z,21.25
2018-10-09T14:51:12.898Z,21.16
2018-10-09T14:53:40.526Z,21.21
2018-10-09T14:56:08.105Z,21.20
2018-10-09T14:58:35.575Z,21.23
2018-10-09T15:01:03.075Z,21.30
2018-10-09T15:03:30.714Z,21.28
2018-10-09T15:05:58.087Z,21.30
2018-10-09T15:08:25.527Z,21.35
2018-10-09T15:10:53.165Z,21.31
2018-10-09T15:13:20.827Z,21.26
2018-10-09T15:15:48.367Z,21.20
2018-10-09T15:18:15.935Z,21.17
2018-10-09T15:20:43.685Z,21.14
2018-10-09T15:23:11.371Z,21.12
2018-10-09T15:25:38.893Z,21.07
2018-10-09T15:28:06.873Z,21.01
2018-10-09T15:30:34.374Z,21.01
2018-10-09T15:33:02.016Z,21.00
2018-10-09T15:35:29.562Z,20.99
2018-10-09T15:37:57.247Z,21.02
2018-10-09T15:40:25.048Z,21.04
2018-10-09T15:42:52.874Z,21.02
2018-10-09T15:45:20.565Z,20.96
2018-10-09T15:47:48.506Z,20.92
2018-10-09T15:50:16.343Z,20.82
2018-10-09T15:52:44.180Z,20.77
2018-10-09T15:55:11.788Z,20.68
2018-10-09T15:57:39.458Z,20.60
2018-10-09T16:00:09.138Z,20.54
2018-10-09T16:02:36.790Z,20.40
2018-10-09T16:05:04.560Z,20.28
2018-10-09T16:07:32.204Z,20.17
2018-10-09T16:09:59.718Z,20.03
2018-10-09T16:12:27.229Z,19.86
2018-10-09T16:14:54.740Z,19.72
2018-10-09T16:17:22.305Z,19.57
2018-10-09T16:19:49.760Z,19.45
2018-10-09T16:22:17.222Z,19.32
2018-10-09T16:24:44.652Z,19.16
2018-10-09T16:27:12.138Z,19.05
2018-10-09T16:29:39.698Z,18.96
2018-10-09T16:32:07.227Z,18.85
2018-10-09T16:34:34.785Z,18.78
2018-10-09T16:37:02.506Z,18.69
2018-10-09T16:39:29.997Z,18.63
2018-10-09T16:41:57.463Z,18.53
2018-10-09T16:44:25.034Z,18.44
2018-10-09T16:46:52.612Z,18.37
2018-10-09T16:49:20.093Z,18.34
2018-10-09T16:51:47.630Z,18.21
2018-10-09T16:54:15.083Z,18.05
2018-10-09T16:56:42.626Z,17.89
2018-10-09T16:59:10.103Z,17.77
2018-10-09T17:01:37.840Z,17.67
2018-10-09T17:04:05.305Z,17.55
2018-10-09T17:06:32.899Z,17.45
2018-10-09T17:09:00.504Z,17.36
2018-10-09T17:11:28.006Z,17.28
2018-10-09T17:13:55.564Z,17.18
2018-10-09T17:16:23.022Z,17.09
2018-10-09T17:18:50.532Z,17.09
2018-10-09T17:21:18.056Z,17.01
2018-10-09T17:23:46.106Z,16.93
2018-10-09T17:26:13.592Z,16.91
2018-10-09T17:28:41.126Z,16.85
2018-10-09T17:31:08.613Z,16.75
2018-10-09T17:33:36.185Z,16.65
2018-10-09T17:36:03.720Z,16.54
2018-10-09T17:38:31.127Z,16.49
2018-10-09T17:40:58.598Z,16.42
2018-10-09T17:43:26.102Z,16.36
2018-10-09T17:45:53.572Z,16.29
2018-10-09T17:48:21.014Z,16.28
2018-10-09T17:50:48.528Z,16.30
2018-10-09T17:53:15.956Z,16.24
2018-10-09T17:55:43.420Z,16.21
2018-10-09T17:58:11.039Z,16.11
2018-10-09T18:00:38.635Z,16.06
2018-10-09T18:03:06.287Z,15.98
2018-10-09T18:05:33.735Z,15.87
2018-10-09T18:08:01.255Z,15.78
2018-10-09T18:10:28.720Z,15.70
2018-10-09T18:12:56.198Z,15.59
2018-10-09T18:15:23.716Z,15.53
2018-10-09T18:17:51.181Z,15.49
2018-10-09T18:20:18.799Z,15.51
2018-10-09T18:22:46.259Z,15.46
2018-10-09T18:25:13.711Z,15.44
2018-10-09T18:27:41.254Z,15.43
2018-10-09T18:30:09.357Z,15.42
2018-10-09T18:32:36.903Z,15.40
2018-10-09T18:35:04.629Z,15.38
2018-10-09T18:37:32.107Z,15.35
2018-10-09T18:39:59.525Z,15.37
2018-10-09T18:42:27.116Z,15.41
2018-10-09T18:44:54.472Z,15.38
2018-10-09T18:47:27.551Z,15.32
2018-10-09T18:49:55.035Z,15.27
2018-10-09T18:52:22.560Z,15.21
2018-10-09T18:54:50.064Z,15.20
2018-10-09T18:57:17.489Z,15.21
2018-10-09T18:59:45.016Z,15.20
2018-10-09T19:02:12.510Z,15.19
2018-10-09T19:04:39.943Z,15.17
2018-10-09T19:07:07.471Z,15.11
2018-10-09T19:09:34.956Z,15.06
2018-10-09T19:12:02.719Z,15.04
2018-10-09T19:14:30.131Z,15.02
2018-10-09T19:16:57.648Z,14.97
2018-10-09T19:19:25.078Z,14.92
2018-10-09T19:21:52.643Z,14.86
2018-10-09T19:24:20.068Z,14.85
2018-10-09T19:26:47.666Z,14.84
2018-10-09T19:29:15.216Z,14.89
2018-10-09T19:31:42.740Z,14.87
2018-10-09T19:34:10.202Z,14.83
2018-10-09T19:36:37.647Z,14.80
2018-10-09T19:39:08.030Z,14.79
2018-10-09T19:41:35.782Z,14.80
2018-10-09T19:44:03.238Z,14.82
2018-10-09T19:46:30.726Z,14.78
2018-10-09T19:48:58.156Z,14.70
2018-10-09T19:51:25.710Z,14.64
2018-10-09T19:53:53.070Z,14.61
2018-10-09T19:56:20.619Z,14.61
2018-10-09T19:58:48.069Z,14.58
2018-10-09T20:01:15.578Z,14.57
2018-10-09T20:03:42.997Z,14.56
2018-10-09T20:06:10.426Z,14.64
2018-10-09T20:08:38.014Z,14.62
2018-10-09T20:11:05.549Z,14.58
2018-10-09T20:13:33.049Z,14.53
2018-10-09T20:16:02.134Z,14.45
2018-10-09T20:18:29.590Z,14.40
2018-10-09T20:20:57.092Z,14.34
2018-10-09T20:23:24.577Z,14.30
2018-10-09T20:25:52.145Z,14.24
2018-10-09T20:28:19.633Z,14.15
2018-10-09T20:30:47.110Z,14.11
2018-10-09T20:33:14.546Z,14.02
2018-10-09T20:35:42.138Z,13.94
2018-10-09T20:38:09.772Z,13.85
2018-10-09T20:40:37.321Z,13.77
2018-10-09T20:43:04.897Z,13.68
2018-10-09T20:45:32.415Z,13.68
2018-10-09T20:47:59.804Z,13.64
2018-10-09T20:50:27.224Z,13.64
2018-10-09T20:52:54.683Z,13.67
2018-10-09T20:55:22.182Z,13.68
2018-10-09T20:57:49.659Z,13.69
2018-10-09T21:00:17.301Z,13.70
2018-10-09T21:02:44.727Z,13.69
2018-10-09T21:05:12.308Z,13.67
2018-10-09T21:07:39.801Z,13.66
2018-10-09T21:10:07.299Z,13.66
2018-10-09T21:12:34.811Z,13.63
2018-10-09T21:15:02.297Z,13.59
2018-10-09T21:17:29.722Z,13.53
2018-10-09T21:19:57.566Z,13.51
2018-10-09T21:22:28.121Z,13.46
2018-10-09T21:24:55.713Z,13.44
2018-10-09T21:27:23.151Z,13.39
2018-10-09T21:29:50.657Z,13.40
2018-10-09T21:32:18.084Z,13.43
2018-10-09T21:34:45.509Z,13.49
2018-10-09T21:37:13.106Z,13.53
2018-10-09T21:39:40.497Z,13.58
2018-10-09T21:42:07.866Z,13.63
2018-10-09T21:44:35.343Z,13.67
2018-10-09T21:47:02.798Z,13.72
2018-10-09T21:49:30.237Z,13.72
2018-10-09T21:51:57.785Z,13.75
2018-10-09T21:54:25.203Z,13.77
2018-10-09T21:56:52.643Z,13.73
2018-10-09T21:59:20.069Z,13.69
2018-10-09T22:01:47.570Z,13.65
2018-10-09T22:04:15.178Z,13.65
2018-10-09T22:06:42.767Z,13.62
2018-10-09T22:09:10.290Z,13.60
2018-10-09T22:11:37.737Z,13.58
2018-10-09T22:14:05.426Z,13.53
2018-10-09T22:16:32.967Z,13.47
2018-10-09T22:19:00.534Z,13.44
2018-10-09T22:21:28.113Z,13.39
2018-10-09T22:23:55.540Z,13.37
2018-10-09T22:26:22.986Z,13.33
2018-10-09T22:28:50.474Z,13.28
2018-10-09T22:31:17.962Z,13.23
2018-10-09T22:33:45.479Z,13.18
2018-10-09T22:36:13.026Z,13.15
2018-10-09T22:38:40.603Z,13.12
2018-10-09T22:41:08.178Z,13.09
2018-10-09T22:43:35.632Z,13.08
2018-10-09T22:46:03.114Z,13.08
2018-10-09T22:48:30.579Z,13.08
2018-10-09T22:50:58.252Z,13.07
2018-10-09T22:53:25.634Z,13.06
2018-10-09T22:55:53.106Z,13.05
2018-10-09T22:58:20.654Z,12.99
2018-10-09T23:00:48.139Z,12.93
2018-10-09T23:03:15.760Z,12.90
2018-10-09T23:05:43.258Z,12.86
2018-10-09T23:08:10.771Z,12.83
2018-10-09T23:10:38.229Z,12.80
2018-10-09T23:13:05.962Z,12.75
2018-10-09T23:15:33.511Z,12.71
2018-10-09T23:18:00.905Z,12.69
2018-10-09T23:20:28.398Z,12.66
2018-10-09T23:22:55.846Z,12.63
2018-10-09T23:25:23.316Z,12.56
2018-10-09T23:27:50.797Z,12.47
2018-10-09T23:30:18.226Z,12.44
2018-10-09T23:32:45.678Z,12.49
2018-10-09T23:35:13.169Z,12.46
2018-10-09T23:37:40.701Z,12.42
2018-10-09T23:40:08.260Z,12.39
2018-10-09T23:42:35.803Z,12.37
2018-10-09T23:45:03.350Z,12.40
2018-10-09T23:47:30.930Z,12.35
2018-10-09T23:49:58.508Z,12.39
2018-10-09T23:52:25.930Z,12.42
2018-10-09T23:54:53.512Z,12.42
2018-10-09T23:57:21.203Z,12.45
2018-10-09T23:59:48.627Z,12.56
